createdAt,value
2022-09-16T00:01:14.441Z,16.62
2022-09-16T00:03:43.363Z,16.59
2022-09-16T00:06:20.309Z,16.55
2022-09-16T00:08:50.823Z,16.53
2022-09-16T00:11:20.339Z,16.50
2022-09-16T00:13:48.953Z,16.48
2022-09-16T00:16:22.219Z,16.45
2022-09-16T00:18:54.079Z,16.44
2022-09-16T00:21:22.717Z,16.40
2022-09-16T00:23:52.442Z,16.39
2022-09-16T00:26:20.879Z,16.37
2022-09-16T00:28:50.654Z,16.35
2022-09-16T00:31:19.387Z,16.31
2022-09-16T00:33:48.091Z,16.30
2022-09-16T00:36:19.270Z,16.26
2022-09-16T00:38:47.527Z,16.24
2022-09-16T00:41:21.210Z,16.20
2022-09-16T00:43:57.272Z,16.16
2022-09-16T00:46:33.660Z,16.14
2022-09-16T00:49:05.968Z,16.12
2022-09-16T00:51:35.040Z,16.11
2022-09-16T00:54:05.886Z,16.10
2022-09-16T00:56:39.809Z,16.08
2022-09-16T00:59:12.505Z,16.05
2022-09-16T01:01:44.811Z,16.02
2022-09-16T01:04:19.419Z,16.01
2022-09-16T01:06:48.249Z,15.99
2022-09-16T01:09:16.871Z,15.97
2022-09-16T01:11:46.585Z,15.94
2022-09-16T01:14:33.119Z,15.94
2022-09-16T01:17:09.618Z,15.89
2022-09-16T01:20:03.811Z,15.83
2022-09-16T01:22:51.107Z,15.82
2022-09-16T01:25:40.328Z,15.80
2022-09-16T01:28:43.791Z,15.74
2022-09-16T01:31:17.967Z,15.73
2022-09-16T01:33:59.495Z,15.71
2022-09-16T01:36:39.899Z,15.70
2022-09-16T01:39:19.344Z,15.69
2022-09-16T01:42:16.584Z,15.67
2022-09-16T01:44:55.110Z,15.64
2022-09-16T01:47:37.191Z,15.65
2022-09-16T01:50:13.585Z,15.63
2022-09-16T01:52:53.085Z,15.63
2022-09-16T01:55:29.606Z,15.62
2022-09-16T01:58:05.040Z,15.62
2022-09-16T02:00:35.101Z,15.60
2022-09-16T02:03:09.664Z,15.58
2022-09-16T02:05:42.973Z,15.59
2022-09-16T02:08:15.582Z,15.60
2022-09-16T02:10:48.821Z,15.60
2022-09-16T02:13:22.690Z,15.59
2022-09-16T02:15:54.006Z,15.58
2022-09-16T02:18:29.841Z,15.57
2022-09-16T02:21:00.727Z,15.55
2022-09-16T02:23:34.068Z,15.56
2022-09-16T02:26:07.167Z,15.58
2022-09-16T02:28:39.343Z,15.57
2022-09-16T02:31:10.611Z,15.58
2022-09-16T02:33:46.605Z,15.56
2022-09-16T02:36:17.155Z,15.57
2022-09-16T02:38:50.627Z,15.58
2022-09-16T02:41:19.012Z,15.57
2022-09-16T02:43:47.665Z,15.58
2022-09-16T02:46:25.689Z,15.57
2022-09-16T02:49:05.940Z,15.58
2022-09-16T02:51:45.032Z,15.58
2022-09-16T02:54:22.457Z,15.60
2022-09-16T02:56:50.969Z,15.61
2022-09-16T02:59:20.265Z,15.62
2022-09-16T03:01:49.107Z,15.63
2022-09-16T03:04:21.152Z,15.61
2022-09-16T03:06:49.686Z,15.62
2022-09-16T03:09:23.829Z,15.63
2022-09-16T03:12:29.442Z,15.61
2022-09-16T03:15:27.966Z,15.59
2022-09-16T03:18:39.653Z,15.58
2022-09-16T03:21:20.423Z,15.57
2022-09-16T03:23:58.712Z,15.58
2022-09-16T03:26:36.491Z,15.58
2022-09-16T03:29:16.192Z,15.60
2022-09-16T03:31:51.748Z,15.60
2022-09-16T03:34:27.038Z,15.61
2022-09-16T03:37:02.665Z,15.62
2022-09-16T03:39:32.391Z,15.64
2022-09-16T03:42:05.471Z,15.63
2022-09-16T03:44:36.222Z,15.65
2022-09-16T03:47:05.563Z,15.67
2022-09-16T03:49:33.794Z,15.69
2022-09-16T03:52:05.488Z,15.69
2022-09-16T03:54:33.831Z,15.71
2022-09-16T03:57:02.320Z,15.72
2022-09-16T03:59:31.104Z,15.74
2022-09-16T04:01:59.358Z,15.75
2022-09-16T04:04:27.726Z,15.74
2022-09-16T04:06:55.948Z,15.75
2022-09-16T04:09:25.529Z,15.77
2022-09-16T04:11:53.732Z,15.78
2022-09-16T04:14:21.986Z,15.78
2022-09-16T04:16:50.182Z,15.79
2022-09-16T04:19:18.494Z,15.78
2022-09-16T04:21:46.693Z,15.79
2022-09-16T04:24:15.047Z,15.80
2022-09-16T04:26:45.462Z,15.81
2022-09-16T04:29:13.922Z,15.81
2022-09-16T04:31:42.192Z,15.82
2022-09-16T04:34:12.853Z,15.82
2022-09-16T04:36:41.137Z,15.82
2022-09-16T04:39:09.567Z,15.82
2022-09-16T04:41:37.785Z,15.83
2022-09-16T04:44:07.531Z,15.83
2022-09-16T04:46:35.829Z,15.84
2022-09-16T04:49:04.773Z,15.85
2022-09-16T04:51:33.178Z,15.86
2022-09-16T04:54:01.863Z,15.87
2022-09-16T04:56:32.847Z,15.87
2022-09-16T04:59:04.118Z,15.88
2022-09-16T05:01:36.999Z,15.89
2022-09-16T05:04:07.740Z,15.91
2022-09-16T05:06:38.436Z,15.91
2022-09-16T05:09:07.413Z,15.92
2022-09-16T05:11:38.247Z,15.93
2022-09-16T05:14:09.931Z,15.95
2022-09-16T05:16:39.511Z,15.98
2022-09-16T05:19:07.770Z,16.00
2022-09-16T05:21:38.527Z,16.00
2022-09-16T05:24:09.902Z,16.03
2022-09-16T05:26:41.948Z,16.04
2022-09-16T05:29:12.930Z,16.07
2022-09-16T05:31:44.789Z,16.10
2022-09-16T05:34:15.937Z,16.13
2022-09-16T05:36:47.485Z,16.15
2022-09-16T05:39:23.183Z,16.17
2022-09-16T05:41:55.716Z,16.19
2022-09-16T05:44:24.321Z,16.23
2022-09-16T05:46:54.329Z,16.24
2022-09-16T05:49:23.539Z,16.28
2022-09-16T05:51:53.376Z,16.29
2022-09-16T05:54:25.117Z,16.31
2022-09-16T05:56:53.996Z,16.32
2022-09-16T05:59:23.527Z,16.34
2022-09-16T06:01:53.405Z,16.35
2022-09-16T06:04:21.645Z,16.39
2022-09-16T06:06:49.905Z,16.42
2022-09-16T06:09:21.034Z,16.45
2022-09-16T06:11:51.227Z,16.48
2022-09-16T06:14:22.659Z,16.50
2022-09-16T06:16:51.432Z,16.52
2022-09-16T06:19:21.081Z,16.55
2022-09-16T06:21:49.751Z,16.59
2022-09-16T06:24:20.598Z,16.59
2022-09-16T06:26:50.226Z,16.61
2022-09-16T06:29:18.994Z,16.64
2022-09-16T06:31:47.351Z,16.67
2022-09-16T06:34:18.493Z,16.70
2022-09-16T06:36:48.762Z,16.73
2022-09-16T06:39:18.234Z,16.78
2022-09-16T06:41:46.881Z,16.81
2022-09-16T06:44:15.119Z,16.84
2022-09-16T06:46:44.162Z,16.87
2022-09-16T06:49:13.165Z,16.91
2022-09-16T06:51:41.563Z,16.95
2022-09-16T06:54:13.057Z,16.99
2022-09-16T06:56:41.684Z,17.05
2022-09-16T06:59:11.022Z,17.07
2022-09-16T07:01:39.349Z,17.14
2022-09-16T07:04:13.165Z,17.16
2022-09-16T07:09:32.562Z,17.21
2022-09-16T07:12:01.308Z,17.24
2022-09-16T07:14:32.550Z,17.26
2022-09-16T07:17:01.247Z,17.27
2022-09-16T07:19:30.024Z,17.30
2022-09-16T07:21:58.445Z,17.31
2022-09-16T07:24:26.816Z,17.33
2022-09-16T07:26:56.398Z,17.35
2022-09-16T07:29:24.607Z,17.39
2022-09-16T07:31:53.132Z,17.43
2022-09-16T07:34:21.366Z,17.48
2022-09-16T07:36:50.793Z,17.52
2022-09-16T07:39:21.175Z,17.58
2022-09-16T07:41:49.820Z,17.63
2022-09-16T07:44:21.748Z,17.66
2022-09-16T07:46:51.494Z,17.72
2022-09-16T07:49:20.141Z,17.76
2022-09-16T07:51:48.564Z,17.79
2022-09-16T07:54:19.088Z,17.87
2022-09-16T07:56:47.681Z,17.90
2022-09-16T07:59:19.940Z,17.93
2022-09-16T08:01:50.232Z,17.97
2022-09-16T08:04:20.161Z,17.99
2022-09-16T08:06:49.005Z,18.03
2022-09-16T08:12:07.898Z,18.08
2022-09-16T08:14:38.271Z,18.09
2022-09-16T08:17:07.521Z,18.12
2022-09-16T08:19:35.899Z,18.14
2022-09-16T08:22:04.429Z,18.17
2022-09-16T08:24:32.731Z,18.20
2022-09-16T08:27:01.017Z,18.21
2022-09-16T08:29:29.716Z,18.23
2022-09-16T08:31:59.367Z,18.24
2022-09-16T08:34:27.607Z,18.27
2022-09-16T08:36:55.824Z,18.29
2022-09-16T08:39:24.027Z,18.31
2022-09-16T08:42:31.943Z,18.31
2022-09-16T08:45:16.075Z,18.34
2022-09-16T08:48:04.194Z,18.36
2022-09-16T08:50:37.679Z,18.39
2022-09-16T08:53:13.249Z,18.43
2022-09-16T08:55:46.873Z,18.45
2022-09-16T08:58:19.034Z,18.50
2022-09-16T09:00:50.849Z,18.54
2022-09-16T09:03:36.270Z,18.58
2022-09-16T09:06:09.906Z,18.65
2022-09-16T09:08:47.944Z,18.69
2022-09-16T09:11:24.644Z,18.75
2022-09-16T09:14:08.385Z,18.80
2022-09-16T09:16:45.919Z,18.84
2022-09-16T09:19:30.084Z,18.85
2022-09-16T09:22:06.705Z,18.85
2022-09-16T09:24:56.831Z,18.89
2022-09-16T09:27:29.651Z,18.92
2022-09-16T09:30:13.546Z,18.94
2022-09-16T09:33:17.539Z,18.95
2022-09-16T09:36:20.024Z,18.99
2022-09-16T09:39:18.581Z,19.00
2022-09-16T09:41:51.760Z,19.03
2022-09-16T09:44:48.944Z,19.06
2022-09-16T09:47:25.073Z,19.10
2022-09-16T09:49:58.554Z,19.14
2022-09-16T09:52:33.986Z,19.24
2022-09-16T09:55:18.271Z,19.30
2022-09-16T09:58:10.612Z,19.38
2022-09-16T10:00:38.905Z,19.45
2022-09-16T10:03:13.014Z,19.50
2022-09-16T10:05:42.118Z,19.54
2022-09-16T10:08:20.320Z,19.58
2022-09-16T10:10:52.578Z,19.59
2022-09-16T10:13:21.590Z,19.61
2022-09-16T10:15:54.819Z,19.64
2022-09-16T10:18:29.700Z,19.63
2022-09-16T10:21:05.853Z,19.65
2022-09-16T10:23:36.946Z,19.66
2022-09-16T10:26:20.514Z,19.68
2022-09-16T10:28:56.924Z,19.69
2022-09-16T10:31:32.007Z,19.70
2022-09-16T10:34:04.435Z,19.69
2022-09-16T10:36:36.101Z,19.69
2022-09-16T10:39:06.399Z,19.70
2022-09-16T10:41:42.905Z,19.68
2022-09-16T10:44:19.092Z,19.67
2022-09-16T10:46:59.989Z,19.65
2022-09-16T10:49:36.809Z,19.63
2022-09-16T10:54:47.487Z,19.58
2022-09-16T10:57:26.562Z,19.56
2022-09-16T11:00:08.500Z,19.53
2022-09-16T11:03:15.122Z,19.48
2022-09-16T11:05:56.363Z,19.48
2022-09-16T11:08:43.036Z,19.42
2022-09-16T11:11:24.262Z,19.39
2022-09-16T11:13:59.125Z,19.35
2022-09-16T11:17:00.518Z,19.29
2022-09-16T11:19:50.545Z,19.23
2022-09-16T11:22:28.831Z,19.17
2022-09-16T11:25:38.118Z,19.11
2022-09-16T11:28:49.831Z,19.06
2022-09-16T11:31:32.276Z,19.02
2022-09-16T11:34:10.574Z,19.00
2022-09-16T11:36:57.260Z,18.98
2022-09-16T11:39:54.513Z,18.94
2022-09-16T11:42:31.636Z,18.91
2022-09-16T11:45:12.364Z,18.89
2022-09-16T11:48:00.569Z,18.86
2022-09-16T11:50:42.606Z,18.81
2022-09-16T11:53:41.856Z,18.75
2022-09-16T11:56:16.653Z,18.71
2022-09-16T11:58:50.165Z,18.65
2022-09-16T12:01:31.664Z,18.57
2022-09-16T12:04:06.402Z,18.53
2022-09-16T12:06:43.539Z,18.50
2022-09-16T12:09:18.879Z,18.44
2022-09-16T12:11:52.122Z,18.37
2022-09-16T12:14:24.833Z,18.34
2022-09-16T12:17:00.202Z,18.29
2022-09-16T12:19:34.821Z,18.23
2022-09-16T12:22:07.810Z,18.21
2022-09-16T12:24:43.781Z,18.17
2022-09-16T12:27:27.424Z,18.16
2022-09-16T12:30:03.150Z,18.12
2022-09-16T12:32:43.282Z,18.12
2022-09-16T12:35:16.965Z,18.12
2022-09-16T12:37:49.511Z,18.12
2022-09-16T12:40:21.375Z,18.12
2022-09-16T12:43:36.354Z,18.12
2022-09-16T12:46:58.246Z,18.12
2022-09-16T12:50:11.066Z,18.12
2022-09-16T12:53:33.108Z,18.12
2022-09-16T12:56:09.799Z,18.14
2022-09-16T12:59:16.129Z,18.15
2022-09-16T13:01:48.019Z,18.17
2022-09-16T13:04:20.334Z,18.18
2022-09-16T13:06:53.627Z,18.17
2022-09-16T13:09:26.109Z,18.16
2022-09-16T13:14:48.224Z,18.16
2022-09-16T13:17:30.356Z,18.14
2022-09-16T13:20:07.063Z,18.10
2022-09-16T13:22:46.135Z,18.07
2022-09-16T13:25:24.252Z,18.03
2022-09-16T13:27:59.663Z,17.99
2022-09-16T13:30:37.577Z,17.97
2022-09-16T13:33:28.971Z,17.91
2022-09-16T13:36:33.342Z,17.86
2022-09-16T13:39:05.975Z,17.86
2022-09-16T13:41:37.430Z,17.82
2022-09-16T13:44:40.331Z,17.79
2022-09-16T13:47:30.320Z,17.75
2022-09-16T13:50:02.730Z,17.73
2022-09-16T13:52:33.254Z,17.71
2022-09-16T13:55:10.523Z,17.70
2022-09-16T13:57:52.959Z,17.69
2022-09-16T14:00:23.757Z,17.70
2022-09-16T14:03:17.433Z,17.70
2022-09-16T14:06:33.736Z,17.65
2022-09-16T14:09:12.122Z,17.64
2022-09-16T14:11:51.071Z,17.65
2022-09-16T14:14:46.193Z,17.65
2022-09-16T14:17:20.393Z,17.64
2022-09-16T14:19:53.698Z,17.64
2022-09-16T14:22:25.680Z,17.64
2022-09-16T14:25:05.858Z,17.65
2022-09-16T14:27:43.774Z,17.64
2022-09-16T14:30:17.994Z,17.64
2022-09-16T14:32:47.604Z,17.63
2022-09-16T14:35:22.742Z,17.66
2022-09-16T14:37:54.733Z,17.65
2022-09-16T14:40:25.882Z,17.64
2022-09-16T14:43:01.579Z,17.64
2022-09-16T14:45:32.140Z,17.65
2022-09-16T14:48:05.079Z,17.68
2022-09-16T14:50:38.986Z,17.69
2022-09-16T14:53:34.840Z,17.70
2022-09-16T14:56:04.975Z,17.72
2022-09-16T14:58:37.058Z,17.74
2022-09-16T15:01:12.450Z,17.75
2022-09-16T15:03:50.002Z,17.75
2022-09-16T15:06:23.680Z,17.75
2022-09-16T15:08:58.652Z,17.74
2022-09-16T15:11:47.183Z,17.74
2022-09-16T15:14:17.991Z,17.72
2022-09-16T15:16:50.244Z,17.71
2022-09-16T15:19:22.362Z,17.69
2022-09-16T15:21:51.871Z,17.67
2022-09-16T15:24:24.938Z,17.67
2022-09-16T15:26:53.777Z,17.67
2022-09-16T15:29:34.071Z,17.61
2022-09-16T15:32:18.218Z,17.61
2022-09-16T15:34:46.580Z,17.62
2022-09-16T15:37:33.384Z,17.60
2022-09-16T15:40:32.649Z,17.57
2022-09-16T15:43:14.120Z,17.54
2022-09-16T15:45:45.696Z,17.54
2022-09-16T15:48:18.710Z,17.52
2022-09-16T15:50:50.715Z,17.50
2022-09-16T15:53:23.488Z,17.43
2022-09-16T15:56:01.387Z,17.42
2022-09-16T15:58:41.814Z,17.39
2022-09-16T16:01:20.780Z,17.39
2022-09-16T16:03:57.660Z,17.39
2022-09-16T16:06:50.734Z,17.38
2022-09-16T16:09:42.298Z,17.39
2022-09-16T16:12:14.333Z,17.40
2022-09-16T16:14:43.182Z,17.42
2022-09-16T16:17:15.767Z,17.42
2022-09-16T16:19:45.883Z,17.43
2022-09-16T16:22:14.918Z,17.43
2022-09-16T16:24:43.647Z,17.44
2022-09-16T16:27:11.881Z,17.44
2022-09-16T16:29:40.198Z,17.43
2022-09-16T16:32:13.254Z,17.42
2022-09-16T16:34:43.561Z,17.42
2022-09-16T16:37:33.683Z,17.39
2022-09-16T16:40:04.416Z,17.37
2022-09-16T16:42:32.894Z,17.32
2022-09-16T16:45:01.254Z,17.30
2022-09-16T16:47:30.940Z,17.29
2022-09-16T16:50:00.832Z,17.28
2022-09-16T16:52:29.046Z,17.24
2022-09-16T16:54:57.264Z,17.21
2022-09-16T16:57:25.630Z,17.18
2022-09-16T16:59:53.824Z,17.12
2022-09-16T17:02:22.179Z,17.08
2022-09-16T17:04:51.810Z,17.03
2022-09-16T17:07:28.265Z,17.01
2022-09-16T17:09:57.290Z,16.96
2022-09-16T17:12:25.884Z,16.94
2022-09-16T17:14:54.152Z,16.91
2022-09-16T17:17:25.242Z,16.90
2022-09-16T17:19:57.367Z,16.87
2022-09-16T17:22:25.645Z,16.86
2022-09-16T17:24:53.899Z,16.86
2022-09-16T17:27:24.735Z,16.84
2022-09-16T17:29:53.074Z,16.83
2022-09-16T17:32:21.453Z,16.81
2022-09-16T17:34:49.715Z,16.76
2022-09-16T17:37:19.983Z,16.74
2022-09-16T17:39:49.582Z,16.72
2022-09-16T17:42:18.310Z,16.70
2022-09-16T17:44:46.610Z,16.69
2022-09-16T17:47:15.344Z,16.65
2022-09-16T17:49:43.619Z,16.64
2022-09-16T17:52:11.893Z,16.61
2022-09-16T17:54:42.097Z,16.57
2022-09-16T17:57:10.347Z,16.56
2022-09-16T17:59:38.605Z,16.52
2022-09-16T18:02:07.666Z,16.49
2022-09-16T18:04:36.065Z,16.46
2022-09-16T18:07:04.563Z,16.44
2022-09-16T18:09:33.007Z,16.40
2022-09-16T18:12:03.030Z,16.37
2022-09-16T18:14:31.313Z,16.35
2022-09-16T18:16:59.799Z,16.34
2022-09-16T18:19:28.427Z,16.33
2022-09-16T18:21:56.699Z,16.32
2022-09-16T18:24:24.924Z,16.31
2022-09-16T18:26:53.259Z,16.30
2022-09-16T18:29:22.871Z,16.28
2022-09-16T18:31:52.723Z,16.27
2022-09-16T18:34:20.945Z,16.24
2022-09-16T18:36:49.254Z,16.23
2022-09-16T18:39:18.580Z,16.23
2022-09-16T18:41:47.539Z,16.21
2022-09-16T18:44:19.623Z,16.20
2022-09-16T18:46:50.004Z,16.20
2022-09-16T18:49:21.427Z,16.19
2022-09-16T18:51:52.549Z,16.18
2022-09-16T18:54:25.009Z,16.17
2022-09-16T18:56:56.572Z,16.18
2022-09-16T18:59:29.060Z,16.17
2022-09-16T19:02:00.741Z,16.16
2022-09-16T19:04:32.503Z,16.15
2022-09-16T19:07:07.848Z,16.13
2022-09-16T19:09:38.242Z,16.12
2022-09-16T19:12:07.861Z,16.10
2022-09-16T19:14:36.117Z,16.09
2022-09-16T19:17:06.589Z,16.08
2022-09-16T19:19:35.490Z,16.05
2022-09-16T19:22:05.886Z,16.02
2022-09-16T19:24:35.328Z,15.99
2022-09-16T19:27:03.623Z,15.96
2022-09-16T19:29:32.649Z,15.93
2022-09-16T19:32:01.021Z,15.90
2022-09-16T19:34:30.730Z,15.85
2022-09-16T19:36:59.094Z,15.81
2022-09-16T19:39:28.099Z,15.80
2022-09-16T19:41:57.014Z,15.76
2022-09-16T19:44:25.279Z,15.71
2022-09-16T19:46:53.565Z,15.68
2022-09-16T19:49:23.806Z,15.64
2022-09-16T19:51:54.185Z,15.60
2022-09-16T19:54:24.148Z,15.58
2022-09-16T19:56:53.125Z,15.54
2022-09-16T19:59:22.278Z,15.52
2022-09-16T20:01:50.921Z,15.52
2022-09-16T20:04:20.485Z,15.49
2022-09-16T20:06:49.825Z,15.46
2022-09-16T20:09:20.392Z,15.42
2022-09-16T20:11:49.870Z,15.42
2022-09-16T20:14:21.086Z,15.39
2022-09-16T20:16:50.850Z,15.37
2022-09-16T20:19:21.115Z,15.35
2022-09-16T20:21:49.851Z,15.32
2022-09-16T20:24:23.038Z,15.29
2022-09-16T20:26:54.638Z,15.26
2022-09-16T20:29:23.074Z,15.24
2022-09-16T20:31:53.615Z,15.20
2022-09-16T20:34:24.233Z,15.18
2022-09-16T20:36:52.922Z,15.16
2022-09-16T20:39:23.327Z,15.14
2022-09-16T20:41:52.720Z,15.12
2022-09-16T20:44:21.251Z,15.11
2022-09-16T20:46:50.155Z,15.09
2022-09-16T20:49:22.997Z,15.09
2022-09-16T20:51:51.728Z,15.08
2022-09-16T20:54:20.083Z,15.07
2022-09-16T20:56:50.499Z,15.06
2022-09-16T20:59:20.351Z,15.05
2022-09-16T21:01:49.995Z,15.05
2022-09-16T21:04:20.749Z,15.04
2022-09-16T21:06:49.379Z,15.05
2022-09-16T21:09:19.155Z,15.04
2022-09-16T21:11:49.807Z,15.04
2022-09-16T21:14:21.583Z,15.04
2022-09-16T21:16:50.657Z,15.03
2022-09-16T21:19:19.060Z,15.04
2022-09-16T21:21:48.629Z,15.04
2022-09-16T21:24:17.482Z,15.04
2022-09-16T21:26:46.445Z,15.04
2022-09-16T21:29:20.923Z,15.02
2022-09-16T21:31:50.468Z,15.03
2022-09-16T21:34:21.354Z,15.03
2022-09-16T21:36:50.715Z,15.04
2022-09-16T21:39:20.970Z,15.03
2022-09-16T21:41:50.198Z,15.03
2022-09-16T21:44:20.156Z,15.03
2022-09-16T21:46:49.681Z,15.05
2022-09-16T21:49:22.883Z,15.04
2022-09-16T21:51:52.698Z,15.05
2022-09-16T21:54:21.456Z,15.04
2022-09-16T21:56:51.076Z,15.04
2022-09-16T21:59:21.440Z,15.06
2022-09-16T22:01:51.108Z,15.06
2022-09-16T22:04:22.745Z,15.05
2022-09-16T22:06:52.792Z,15.05
2022-09-16T22:09:21.622Z,15.05
2022-09-16T22:11:49.990Z,15.05
2022-09-16T22:14:20.242Z,15.06
2022-09-16T22:16:49.029Z,15.05
2022-09-16T22:19:19.903Z,15.05
2022-09-16T22:21:50.431Z,15.03
2022-09-16T22:24:21.493Z,15.03
2022-09-16T22:26:52.187Z,15.03
2022-09-16T22:29:22.044Z,15.04
2022-09-16T22:31:50.569Z,15.04
2022-09-16T22:34:19.194Z,15.05
2022-09-16T22:36:47.556Z,15.05
2022-09-16T22:39:18.342Z,15.07
2022-09-16T22:41:46.957Z,15.06
2022-09-16T22:44:15.367Z,15.06
2022-09-16T22:46:46.893Z,15.05
2022-09-16T22:49:15.886Z,15.04
2022-09-16T22:51:44.728Z,15.03
2022-09-16T22:54:14.510Z,15.02
2022-09-16T22:56:44.518Z,15.00
2022-09-16T22:59:18.855Z,14.99
2022-09-16T23:01:49.119Z,14.98
2022-09-16T23:04:18.010Z,14.98
2022-09-16T23:06:46.778Z,14.96
2022-09-16T23:09:15.961Z,14.96
2022-09-16T23:11:44.720Z,14.94
2022-09-16T23:14:15.665Z,14.93
2022-09-16T23:16:44.027Z,14.90
2022-09-16T23:19:13.867Z,14.88
2022-09-16T23:21:42.520Z,14.87
2022-09-16T23:24:17.043Z,14.86
2022-09-16T23:26:46.895Z,14.85
2022-09-16T23:29:18.255Z,14.85
2022-09-16T23:31:46.748Z,14.84
2022-09-16T23:34:20.646Z,14.85
2022-09-16T23:36:50.328Z,14.87
2022-09-16T23:39:19.212Z,14.87
2022-09-16T23:41:49.450Z,14.87
2022-09-16T23:44:18.708Z,14.88
2022-09-16T23:46:47.052Z,14.88
2022-09-16T23:49:20.274Z,14.89
2022-09-16T23:51:48.752Z,14.86
2022-09-16T23:54:17.566Z,14.85
2022-09-16T23:56:45.890Z,14.86
2022-09-16T23:59:14.111Z,14.87
